Time;durP1;ratioP1;P1;durP2;ratioP2;P2;SDS_P1;SDS_P2;PMS_P1;PMS_P2;Temp;Humidity;BMP_temperature;BMP_pressure;BME280_temperature;BME280_humidity;BME280_pressure;Samples;Min_cycle;Max_cycle;Signal;HPM_P1;HPM_P2
2023/01/22 00:01:39;;;;;;;19.53;14.27;;;4.40;99.90;;;;;;5049884;28;20205;-62
2023/01/22 00:04:05;;;;;;;22.20;14.83;;;4.40;99.90;;;;;;5050246;28;20177;-66
2023/01/22 00:06:31;;;;;;;20.27;14.10;;;4.60;99.90;;;;;;5049448;28;20182;-62
2023/01/22 00:08:57;;;;;;;16.80;12.25;;;4.70;99.90;;;;;;5051013;28;20407;-63
2023/01/22 00:11:23;;;;;;;18.60;13.63;;;4.70;99.90;;;;;;5050061;28;20194;-62
2023/01/22 00:13:48;;;;;;;16.25;12.25;;;4.30;99.90;;;;;;5050902;28;20181;-63
2023/01/22 00:16:16;;;;;;;19.50;14.17;;;4.20;99.90;;;;;;5050004;28;20182;-63
2023/01/22 00:18:42;;;;;;;17.70;12.93;;;4.30;99.90;;;;;;5051621;28;20240;-66
2023/01/22 00:21:11;;;;;;;17.63;12.77;;;4.40;99.90;;;;;;5050278;28;20181;-67
2023/01/22 00:23:38;;;;;;;17.88;12.02;;;4.50;99.90;;;;;;5032161;28;20180;-62
2023/01/22 00:26:10;;;;;;;23.20;12.38;;;4.10;99.90;;;;;;5052167;28;20184;-62
2023/01/22 00:28:37;;;;;;;17.70;12.93;;;4.20;99.90;;;;;;5050759;28;20570;-62
2023/01/22 00:31:04;;;;;;;16.83;13.38;;;4.40;99.90;;;;;;5049675;28;20319;-63
2023/01/22 00:33:31;;;;;;;17.05;12.15;;;4.50;99.90;;;;;;5051076;28;20185;-63
2023/01/22 00:36:03;;;;;;;15.52;12.05;;;4.50;99.90;;;;;;5050620;28;20261;-62
2023/01/22 00:38:29;;;;;;;19.42;13.73;;;4.40;99.90;;;;;;5048590;28;20181;-63
2023/01/22 00:40:54;;;;;;;16.00;12.43;;;4.30;99.90;;;;;;5051490;28;20229;-63
2023/01/22 00:43:20;;;;;;;16.30;12.10;;;4.50;99.90;;;;;;5049329;28;20282;-63
2023/01/22 00:45:46;;;;;;;18.10;12.30;;;4.50;99.90;;;;;;5050521;28;20178;-63
2023/01/22 00:48:11;;;;;;;15.30;11.53;;;4.50;99.90;;;;;;5050720;28;20236;-63
2023/01/22 00:50:37;;;;;;;17.10;12.70;;;4.60;99.90;;;;;;5050744;28;20210;-63
2023/01/22 00:53:03;;;;;;;16.53;12.73;;;4.70;99.90;;;;;;5032703;28;20186;-63
2023/01/22 00:55:29;;;;;;;18.97;12.93;;;4.70;99.90;;;;;;5048464;28;20166;-62
2023/01/22 00:57:55;;;;;;;16.10;12.23;;;4.70;99.90;;;;;;5050660;28;20187;-62
2023/01/22 01:00:21;;;;;;;16.73;11.90;;;4.70;99.90;;;;;;5037980;28;20186;-63
2023/01/22 01:05:44;;;;;;;17.27;12.48;;;4.60;99.90;;;;;;5050752;28;20204;-64
2023/01/22 01:08:46;;;;;;;15.55;12.80;;;4.60;99.90;;;;;;5043032;28;20190;-65
2023/01/22 01:11:15;;;;;;;16.67;12.48;;;4.40;99.90;;;;;;5053036;28;20182;-64
2023/01/22 01:13:42;;;;;;;19.15;14.30;;;4.50;99.90;;;;;;5055240;28;20174;-65
2023/01/22 01:16:15;;;;;;;15.73;11.70;;;4.60;99.90;;;;;;5052775;28;20177;-63
2023/01/22 01:18:41;;;;;;;17.38;13.32;;;4.70;99.90;;;;;;5052792;28;20182;-62
2023/01/22 01:21:08;;;;;;;20.08;12.73;;;4.40;99.90;;;;;;5054714;28;20184;-66
2023/01/22 01:23:34;;;;;;;16.83;13.27;;;4.40;99.90;;;;;;5054281;28;20182;-62
2023/01/22 01:26:05;;;;;;;17.25;11.63;;;4.40;99.90;;;;;;5052277;28;20640;-63
2023/01/22 01:28:30;;;;;;;19.13;13.52;;;4.40;99.90;;;;;;5054668;28;20165;-62
2023/01/22 01:31:01;;;;;;;15.37;12.80;;;4.40;99.90;;;;;;5052508;28;20646;-63
2023/01/22 01:33:29;;;;;;;14.60;11.02;;;4.50;99.90;;;;;;5053364;28;20414;-63
2023/01/22 01:36:04;;;;;;;13.77;12.30;;;4.60;99.90;;;;;;5053699;28;20174;-62
2023/01/22 01:38:30;;;;;;;16.60;13.30;;;4.40;99.90;;;;;;5054530;28;20401;-62
2023/01/22 01:40:56;;;;;;;15.82;11.90;;;4.10;99.90;;;;;;5052186;28;20236;-62
2023/01/22 01:43:22;;;;;;;14.93;11.97;;;4.20;99.90;;;;;;5052717;28;20209;-61
2023/01/22 01:45:47;;;;;;;16.63;13.07;;;4.20;99.90;;;;;;5053113;28;20634;-62
2023/01/22 01:48:47;;;;;;;18.50;12.30;;;4.20;99.90;;;;;;5052179;28;20182;-62
2023/01/22 01:51:32;;;;;;;16.48;12.15;;;4.30;99.90;;;;;;5040662;28;20550;-67
2023/01/22 01:53:59;;;;;;;14.18;11.73;;;4.10;99.90;;;;;;5053227;28;20184;-62
2023/01/22 01:56:45;;;;;;;15.63;11.70;;;4.10;99.90;;;;;;5052328;28;20211;-65
2023/01/22 01:59:14;;;;;;;14.45;10.20;;;4.10;99.90;;;;;;5053297;28;20534;-67
2023/01/22 02:01:39;;;;;;;15.07;11.40;;;3.90;99.90;;;;;;5047307;28;20213;-64
2023/01/22 02:04:06;;;;;;;13.90;10.23;;;3.80;99.90;;;;;;5052054;28;20197;-64
2023/01/22 02:06:32;;;;;;;14.90;11.70;;;3.80;99.90;;;;;;5050761;28;21135;-64
2023/01/22 02:08:59;;;;;;;15.83;11.63;;;3.70;99.90;;;;;;5052930;28;20185;-64
2023/01/22 02:11:26;;;;;;;18.45;13.48;;;3.80;99.90;;;;;;5051453;28;20189;-64
2023/01/22 02:14:15;;;;;;;17.00;11.85;;;3.90;99.90;;;;;;5050510;28;20209;-64
2023/01/22 02:16:41;;;;;;;18.67;11.13;;;3.90;99.90;;;;;;5051497;28;20577;-64
2023/01/22 02:19:07;;;;;;;16.60;12.17;;;4.00;99.90;;;;;;5052622;28;20181;-64
2023/01/22 02:21:40;;;;;;;14.90;12.15;;;3.90;99.90;;;;;;5051793;28;20396;-64
2023/01/22 02:24:09;;;;;;;14.52;11.57;;;4.00;99.90;;;;;;5052549;28;20177;-64
2023/01/22 02:26:35;;;;;;;18.95;12.88;;;4.20;99.90;;;;;;5051865;28;20173;-64
2023/01/22 02:29:01;;;;;;;18.00;12.35;;;4.10;99.90;;;;;;5052680;28;20170;-64
2023/01/22 02:31:27;;;;;;;17.73;11.45;;;4.20;99.90;;;;;;5050760;28;20181;-63
2023/01/22 02:33:53;;;;;;;13.37;11.50;;;4.30;99.90;;;;;;5052145;28;20242;-62
2023/01/22 02:36:21;;;;;;;17.40;12.30;;;4.40;99.90;;;;;;5052730;28;20420;-62
2023/01/22 02:38:47;;;;;;;17.27;12.13;;;4.30;99.90;;;;;;5052238;28;20606;-61
2023/01/22 02:41:14;;;;;;;15.60;12.30;;;4.20;99.90;;;;;;5051862;28;20234;-65
2023/01/22 02:43:39;;;;;;;16.55;12.68;;;4.20;99.90;;;;;;5052197;28;20194;-62
2023/01/22 02:46:05;;;;;;;16.73;11.80;;;4.20;99.90;;;;;;5051238;28;20656;-62
2023/01/22 02:48:31;;;;;;;16.65;12.60;;;4.10;99.90;;;;;;5050137;28;20228;-62
2023/01/22 02:50:57;;;;;;;16.03;11.57;;;4.00;99.90;;;;;;5053093;28;20177;-63
2023/01/22 02:53:22;;;;;;;18.77;12.10;;;4.10;99.90;;;;;;5050145;28;20229;-63
2023/01/22 02:55:48;;;;;;;16.20;12.10;;;4.20;99.90;;;;;;5034064;28;20637;-63
2023/01/22 02:58:16;;;;;;;16.70;11.87;;;4.00;99.90;;;;;;5052773;28;20184;-66
2023/01/22 03:00:42;;;;;;;15.43;11.70;;;4.00;99.90;;;;;;5050769;28;20439;-63
2023/01/22 03:03:14;;;;;;;14.30;11.85;;;4.10;99.90;;;;;;5051480;28;20254;-63
2023/01/22 03:05:50;;;;;;;16.90;12.52;;;3.90;99.90;;;;;;5051355;28;20191;-63
2023/01/22 03:08:16;;;;;;;16.90;11.93;;;3.80;99.90;;;;;;5051234;28;20189;-66
2023/01/22 03:10:42;;;;;;;14.82;12.18;;;3.80;99.90;;;;;;5051404;28;20181;-63
2023/01/22 03:21:30;;;;;;;21.67;13.70;;;4.30;99.90;;;;;;5049175;28;20292;-63
2023/01/22 03:23:56;;;;;;;14.77;11.10;;;4.30;99.90;;;;;;5050761;28;20177;-64
2023/01/22 03:26:23;;;;;;;13.70;11.73;;;4.50;99.90;;;;;;5051373;28;20192;-63
2023/01/22 03:28:49;;;;;;;15.77;11.52;;;4.40;99.90;;;;;;5050037;28;20209;-63
2023/01/22 03:31:16;;;;;;;17.70;12.77;;;4.20;99.90;;;;;;5051131;28;20181;-67
2023/01/22 03:33:42;;;;;;;12.98;10.93;;;4.10;99.90;;;;;;5050792;28;20183;-62
2023/01/22 03:36:11;;;;;;;16.63;11.45;;;4.00;99.90;;;;;;5050195;28;20189;-62
2023/01/22 03:38:37;;;;;;;15.15;12.68;;;3.80;99.90;;;;;;5048670;28;20188;-62
2023/01/22 03:41:05;;;;;;;14.80;11.87;;;3.80;99.90;;;;;;5050994;28;20225;-62
2023/01/22 03:43:32;;;;;;;17.70;12.57;;;3.90;99.90;;;;;;5051507;28;20228;-62
2023/01/22 03:46:05;;;;;;;20.13;12.77;;;3.80;99.90;;;;;;5052339;28;20208;-62
2023/01/22 03:48:32;;;;;;;16.10;12.15;;;3.80;99.90;;;;;;5051600;28;20196;-62
2023/01/22 03:51:04;;;;;;;15.70;12.98;;;3.80;99.90;;;;;;5052308;28;20189;-62
2023/01/22 03:53:30;;;;;;;19.00;13.05;;;3.90;99.90;;;;;;5049994;28;20691;-62
2023/01/22 03:56:00;;;;;;;14.13;11.63;;;3.90;99.90;;;;;;5051138;28;20173;-62
2023/01/22 03:58:25;;;;;;;17.85;13.35;;;4.00;99.90;;;;;;5050217;28;20189;-63
2023/01/22 04:00:56;;;;;;;17.63;13.17;;;4.00;99.90;;;;;;5052174;28;20169;-62
2023/01/22 04:03:23;;;;;;;15.40;12.15;;;4.00;99.90;;;;;;5051342;28;20186;-63
2023/01/22 04:05:49;;;;;;;15.32;12.40;;;4.00;99.90;;;;;;5051770;28;20220;-62
2023/01/22 04:08:14;;;;;;;15.43;11.77;;;4.10;99.90;;;;;;5052099;28;20212;-63
2023/01/22 04:10:41;;;;;;;16.50;12.30;;;4.30;99.90;;;;;;5049833;28;20193;-63
2023/01/22 04:13:07;;;;;;;15.38;12.30;;;4.30;99.90;;;;;;5052055;28;20189;-62
2023/01/22 04:15:33;;;;;;;20.07;12.77;;;4.40;99.90;;;;;;5050105;28;20177;-63
2023/01/22 04:17:58;;;;;;;14.17;12.40;;;4.40;99.90;;;;;;5052024;28;20519;-62
2023/01/22 04:20:24;;;;;;;12.90;11.53;;;4.50;99.90;;;;;;5050272;28;20636;-63
2023/01/22 04:22:50;;;;;;;16.27;12.40;;;4.40;99.90;;;;;;5051669;28;20284;-62
2023/01/22 04:25:16;;;;;;;14.18;11.80;;;4.50;99.90;;;;;;5051951;28;20235;-63
2023/01/22 04:27:44;;;;;;;20.97;12.90;;;4.40;99.90;;;;;;5047662;28;20693;-62
2023/01/22 04:30:10;;;;;;;17.08;12.50;;;4.30;99.90;;;;;;5050636;28;20590;-62
2023/01/22 04:32:36;;;;;;;15.45;12.77;;;4.30;99.90;;;;;;5051091;28;20578;-63
2023/01/22 04:35:03;;;;;;;15.90;12.20;;;4.40;99.90;;;;;;5052815;28;20173;-62
2023/01/22 04:37:30;;;;;;;18.70;13.18;;;4.30;99.90;;;;;;5053294;28;20434;-63
2023/01/22 04:39:55;;;;;;;15.68;12.60;;;4.30;99.90;;;;;;5055566;28;20535;-62
2023/01/22 04:42:21;;;;;;;15.50;12.40;;;4.00;99.90;;;;;;5050237;28;20200;-66
2023/01/22 04:44:47;;;;;;;16.60;12.13;;;4.00;99.90;;;;;;5049606;28;20239;-63
2023/01/22 04:47:12;;;;;;;18.10;13.80;;;4.10;99.90;;;;;;5055660;28;20441;-62
2023/01/22 04:49:38;;;;;;;16.20;13.23;;;4.00;99.90;;;;;;5054809;28;20533;-62
2023/01/22 04:52:04;;;;;;;22.30;14.17;;;4.10;99.90;;;;;;5055290;28;20192;-62
2023/01/22 04:54:30;;;;;;;20.10;13.50;;;4.00;99.90;;;;;;5054951;28;20185;-63
2023/01/22 04:56:55;;;;;;;18.00;13.37;;;4.00;99.90;;;;;;5055739;28;20213;-62
2023/01/22 04:59:21;;;;;;;16.53;13.90;;;4.10;99.90;;;;;;5054060;28;20462;-66
2023/01/22 05:01:49;;;;;;;15.73;13.17;;;4.00;99.90;;;;;;5055227;28;20219;-62
2023/01/22 05:04:15;;;;;;;16.42;12.98;;;4.00;99.90;;;;;;5055266;28;20185;-63
2023/01/22 05:06:41;;;;;;;18.95;13.85;;;4.10;99.90;;;;;;5052349;28;20759;-63
2023/01/22 05:09:07;;;;;;;15.70;12.00;;;4.00;99.90;;;;;;5054025;28;20184;-62
2023/01/22 05:11:32;;;;;;;18.17;14.10;;;3.80;99.90;;;;;;5052465;28;20650;-62
2023/01/22 05:13:58;;;;;;;16.00;12.50;;;3.80;99.90;;;;;;5054251;28;20180;-62
2023/01/22 05:16:24;;;;;;;18.00;13.67;;;3.90;99.90;;;;;;5051176;28;20319;-66
2023/01/22 05:18:50;;;;;;;17.83;12.20;;;4.00;99.90;;;;;;5054788;28;20185;-62
2023/01/22 05:21:15;;;;;;;16.97;12.10;;;3.90;99.90;;;;;;5054893;28;20181;-63
2023/01/22 05:23:42;;;;;;;15.73;13.00;;;3.90;99.90;;;;;;5053051;28;20192;-62
2023/01/22 05:26:08;;;;;;;18.88;13.65;;;3.90;99.90;;;;;;5054902;28;20273;-62
2023/01/22 05:28:34;;;;;;;21.80;14.47;;;4.00;99.90;;;;;;5052893;28;20591;-62
2023/01/22 05:31:00;;;;;;;17.90;13.70;;;4.00;99.90;;;;;;5053225;28;20418;-63
2023/01/22 05:33:28;;;;;;;18.47;13.70;;;4.10;99.90;;;;;;5054155;28;20260;-67
2023/01/22 05:35:56;;;;;;;17.13;13.43;;;4.20;99.90;;;;;;5054843;28;20432;-62
2023/01/22 05:38:22;;;;;;;17.77;13.50;;;4.20;99.90;;;;;;5054733;28;20170;-62
2023/01/22 05:40:48;;;;;;;16.40;12.60;;;4.20;99.90;;;;;;5053082;28;20209;-62
2023/01/22 05:43:14;;;;;;;19.63;14.10;;;4.20;99.90;;;;;;5054484;28;20198;-62
2023/01/22 05:45:39;;;;;;;19.53;13.53;;;4.20;99.90;;;;;;5053728;28;20209;-62
2023/01/22 05:48:05;;;;;;;19.73;14.87;;;4.20;99.90;;;;;;5052268;28;20194;-62
2023/01/22 05:50:31;;;;;;;20.67;13.53;;;4.20;99.90;;;;;;5053638;28;20192;-63
2023/01/22 05:52:56;;;;;;;19.57;13.87;;;4.10;99.90;;;;;;5053440;28;20181;-62
2023/01/22 05:55:22;;;;;;;17.97;14.10;;;4.10;99.90;;;;;;5052894;28;20211;-62
2023/01/22 05:57:48;;;;;;;19.87;14.73;;;4.10;99.90;;;;;;5053515;28;20178;-62
2023/01/22 06:00:14;;;;;;;18.90;13.87;;;4.20;99.90;;;;;;5053652;28;20656;-62
2023/01/22 06:02:40;;;;;;;15.63;13.05;;;4.20;99.90;;;;;;5053270;28;20210;-62
2023/01/22 06:05:06;;;;;;;17.10;11.73;;;4.20;99.90;;;;;;5053331;28;20173;-62
2023/01/22 06:07:32;;;;;;;17.42;13.65;;;4.30;99.90;;;;;;5053145;28;20192;-63
2023/01/22 06:09:58;;;;;;;19.07;13.10;;;4.50;99.90;;;;;;5052069;28;20196;-63
2023/01/22 06:12:23;;;;;;;21.33;13.53;;;4.40;99.90;;;;;;5050738;28;20633;-62
2023/01/22 06:14:49;;;;;;;16.90;12.97;;;4.50;99.90;;;;;;5053259;28;20510;-62
2023/01/22 06:17:15;;;;;;;17.70;13.65;;;4.50;99.90;;;;;;5054087;28;20174;-62
2023/01/22 06:19:41;;;;;;;16.87;13.10;;;4.60;99.90;;;;;;5049092;28;20174;-63
2023/01/22 06:22:07;;;;;;;15.60;12.40;;;4.60;99.90;;;;;;5051963;28;20213;-62
2023/01/22 06:24:32;;;;;;;17.27;12.87;;;4.40;99.90;;;;;;5053014;28;20205;-63
2023/01/22 06:26:58;;;;;;;17.13;12.97;;;4.40;99.90;;;;;;5053744;28;20189;-62
2023/01/22 06:29:24;;;;;;;16.33;12.70;;;4.40;99.90;;;;;;5051619;28;20170;-62
2023/01/22 06:31:49;;;;;;;17.50;13.43;;;4.40;99.90;;;;;;5052871;28;20196;-62
2023/01/22 06:34:15;;;;;;;17.87;12.63;;;4.20;99.90;;;;;;5053370;28;20645;-62
2023/01/22 06:36:41;;;;;;;17.13;12.50;;;4.10;99.90;;;;;;5050610;28;20235;-62
2023/01/22 06:39:06;;;;;;;16.07;12.53;;;4.20;99.90;;;;;;5052166;28;20174;-63
2023/01/22 06:41:32;;;;;;;16.03;12.90;;;4.00;99.90;;;;;;5049917;28;20397;-63
2023/01/22 06:43:58;;;;;;;15.70;12.27;;;4.10;99.90;;;;;;5053456;28;20231;-62
2023/01/22 06:46:24;;;;;;;14.73;12.53;;;4.30;99.90;;;;;;5052208;28;20173;-62
2023/01/22 06:48:49;;;;;;;15.70;12.27;;;4.30;99.90;;;;;;5052560;28;20311;-63
2023/01/22 06:51:15;;;;;;;15.20;12.30;;;4.20;99.90;;;;;;5052104;28;20181;-63
2023/01/22 06:53:41;;;;;;;12.80;11.27;;;4.20;99.90;;;;;;5051259;28;20185;-63
2023/01/22 06:56:07;;;;;;;15.70;12.27;;;4.20;99.90;;;;;;5051691;28;20938;-63
2023/01/22 06:58:32;;;;;;;16.30;11.97;;;4.30;99.90;;;;;;5052214;28;20183;-64
2023/01/22 07:01:03;;;;;;;18.07;14.90;;;4.30;99.90;;;;;;5046659;28;20431;-65
2023/01/22 07:03:29;;;;;;;14.07;12.48;;;4.30;99.90;;;;;;5032757;28;20293;-67
2023/01/22 07:05:59;;;;;;;13.10;11.57;;;4.40;99.90;;;;;;5045766;28;20259;-63
2023/01/22 07:08:26;;;;;;;14.73;11.90;;;4.50;99.90;;;;;;5053087;28;20188;-63
2023/01/22 07:10:52;;;;;;;15.80;12.18;;;4.40;99.90;;;;;;5050540;28;20193;-63
2023/01/22 07:13:18;;;;;;;17.43;13.20;;;4.50;99.90;;;;;;5050859;28;20197;-63
2023/01/22 07:15:44;;;;;;;17.88;12.82;;;4.40;99.90;;;;;;5052041;28;20176;-63
2023/01/22 07:18:13;;;;;;;19.10;12.23;;;4.40;99.90;;;;;;5052499;28;20174;-63
2023/01/22 07:20:43;;;;;;;15.65;12.30;;;4.50;99.90;;;;;;5048933;28;20192;-63
2023/01/22 07:23:08;;;;;;;13.50;11.32;;;4.50;99.90;;;;;;5052877;28;20212;-62
2023/01/22 07:25:34;;;;;;;14.00;11.63;;;4.40;99.90;;;;;;5051856;28;20530;-64
2023/01/22 07:28:01;;;;;;;14.47;11.73;;;4.60;99.90;;;;;;5051407;28;20178;-63
2023/01/22 07:30:27;;;;;;;15.02;11.90;;;4.50;99.90;;;;;;5048259;28;20184;-63
2023/01/22 07:32:56;;;;;;;16.13;12.00;;;4.40;99.90;;;;;;5050944;28;20193;-63
2023/01/22 07:35:22;;;;;;;14.48;11.50;;;4.50;99.90;;;;;;5050586;28;20174;-62
2023/01/22 07:37:52;;;;;;;15.10;12.50;;;4.50;99.90;;;;;;5051905;28;20200;-63
2023/01/22 07:40:18;;;;;;;16.40;11.07;;;4.30;99.90;;;;;;5052470;28;20222;-63
2023/01/22 07:42:43;;;;;;;13.48;10.90;;;4.40;99.90;;;;;;5045337;28;20307;-63
2023/01/22 07:45:09;;;;;;;15.10;11.07;;;4.40;99.90;;;;;;5049626;28;20269;-63
2023/01/22 07:47:35;;;;;;;14.45;11.57;;;4.50;99.90;;;;;;5049535;28;20205;-63
2023/01/22 07:50:01;;;;;;;15.57;12.20;;;4.50;99.90;;;;;;5052406;28;20208;-64
2023/01/22 07:52:27;;;;;;;13.33;10.73;;;4.60;99.90;;;;;;5043063;28;20272;-63
2023/01/22 07:54:53;;;;;;;14.80;11.57;;;4.50;99.90;;;;;;5038216;28;20478;-63
2023/01/22 07:57:18;;;;;;;13.17;10.33;;;4.60;99.90;;;;;;5042054;28;20243;-63
2023/01/22 07:59:44;;;;;;;16.03;11.97;;;4.40;99.90;;;;;;5052225;28;20185;-63
2023/01/22 08:02:12;;;;;;;15.30;11.53;;;4.20;99.90;;;;;;5052114;28;20672;-63
2023/01/22 08:04:41;;;;;;;16.38;12.13;;;4.30;99.90;;;;;;5051953;28;20511;-63
2023/01/22 08:07:18;;;;;;;13.32;11.60;;;4.20;99.90;;;;;;5051757;28;20184;-65
2023/01/22 08:09:44;;;;;;;11.30;10.05;;;4.10;99.90;;;;;;5033140;28;20180;-64
2023/01/22 08:12:10;;;;;;;11.95;9.57;;;4.10;99.90;;;;;;5053694;28;20193;-63
2023/01/22 08:14:35;;;;;;;11.83;10.13;;;3.90;99.90;;;;;;5051051;28;20174;-64
2023/01/22 08:17:01;;;;;;;12.20;10.17;;;4.10;99.90;;;;;;5054009;28;20870;-63
2023/01/22 08:19:28;;;;;;;13.10;10.77;;;4.10;99.90;;;;;;5040557;28;20300;-63
2023/01/22 08:21:54;;;;;;;11.90;10.73;;;4.00;99.90;;;;;;5041830;28;20711;-66
2023/01/22 08:24:20;;;;;;;14.43;12.65;;;4.30;99.90;;;;;;5046980;28;20220;-66
2023/01/22 08:26:46;;;;;;;13.20;11.90;;;5.60;99.90;;;;;;5041327;28;20191;-66
2023/01/22 08:29:12;;;;;;;14.77;13.20;;;7.60;99.90;;;;;;5055973;28;20424;-66
2023/01/22 08:31:38;;;;;;;13.17;11.50;;;8.10;99.90;;;;;;5054214;28;20554;-67
2023/01/22 08:34:04;;;;;;;12.17;10.83;;;8.90;99.90;;;;;;5055485;28;20488;-67
2023/01/22 08:36:30;;;;;;;11.00;9.90;;;9.40;99.90;;;;;;5055196;28;20196;-67
2023/01/22 08:38:55;;;;;;;15.10;12.13;;;10.10;99.90;;;;;;5056141;28;20181;-67
2023/01/22 08:41:21;;;;;;;14.55;11.20;;;10.60;99.90;;;;;;5054684;28;20696;-67
2023/01/22 08:43:47;;;;;;;15.70;12.57;;;11.10;99.90;;;;;;5053381;28;20186;-67
2023/01/22 08:46:13;;;;;;;13.80;10.60;;;11.50;99.90;;;;;;5058298;28;20415;-67
2023/01/22 08:48:42;;;;;;;11.43;10.33;;;12.00;99.90;;;;;;5057404;28;20416;-66
2023/01/22 08:51:07;;;;;;;15.20;13.07;;;12.20;99.90;;;;;;5058162;28;20176;-66
2023/01/22 08:53:33;;;;;;;14.13;12.20;;;12.40;99.80;;;;;;5056202;28;20948;-69
2023/01/22 08:55:59;;;;;;;15.80;13.50;;;12.70;95.50;;;;;;5057131;28;20423;-66
2023/01/22 08:58:26;;;;;;;14.67;12.77;;;12.90;95.80;;;;;;5057488;28;20177;-65
2023/01/22 09:00:53;;;;;;;14.87;12.10;;;13.10;91.40;;;;;;5057366;28;20176;-66
2023/01/22 09:03:20;;;;;;;14.47;12.27;;;13.20;99.90;;;;;;5058494;28;20518;-66
2023/01/22 09:05:46;;;;;;;32.47;23.40;;;13.30;94.00;;;;;;5057748;28;20426;-66
2023/01/22 09:08:12;;;;;;;33.83;20.73;;;13.30;99.90;;;;;;5058611;28;20477;-66
2023/01/22 09:10:38;;;;;;;36.17;24.70;;;13.30;99.90;;;;;;5057271;28;20420;-66
2023/01/22 09:13:03;;;;;;;19.03;16.00;;;13.20;90.20;;;;;;5057139;28;20247;-66
2023/01/22 09:15:29;;;;;;;17.77;13.87;;;12.90;91.70;;;;;;5054225;28;20185;-65
2023/01/22 09:17:55;;;;;;;18.17;14.30;;;12.70;88.50;;;;;;5056312;28;20672;-66
2023/01/22 09:20:21;;;;;;;14.00;12.60;;;12.60;95.70;;;;;;5056680;28;20404;-63
2023/01/22 09:22:47;;;;;;;12.70;11.40;;;12.50;88.50;;;;;;5046765;28;20199;-64
2023/01/22 09:25:14;;;;;;;12.53;11.23;;;12.20;85.10;;;;;;5047257;28;21007;-64
2023/01/22 09:27:40;;;;;;;15.17;12.17;;;10.50;90.60;;;;;;5048171;28;20520;-64
2023/01/22 09:30:08;;;;;;;13.30;11.70;;;10.00;91.80;;;;;;5055287;28;20499;-64
2023/01/22 09:32:34;;;;;;;13.20;11.90;;;9.60;93.60;;;;;;5051617;28;20189;-67
2023/01/22 09:35:00;;;;;;;12.67;11.37;;;9.10;96.30;;;;;;5051632;28;20435;-63
2023/01/22 09:37:26;;;;;;;13.00;11.70;;;8.60;97.50;;;;;;5052699;28;20415;-64
2023/01/22 09:39:52;;;;;;;427.37;222.00;;;8.30;99.90;;;;;;5052584;28;20425;-64
2023/01/22 09:42:30;;;;;;;48.87;30.90;;;7.80;99.90;;;;;;5053217;28;20496;-63
2023/01/22 09:45:10;;;;;;;15.27;13.00;;;7.60;99.90;;;;;;5050007;28;20437;-64
2023/01/22 09:47:48;;;;;;;13.30;11.97;;;7.40;99.90;;;;;;5050562;28;20401;-67
2023/01/22 09:50:29;;;;;;;14.75;11.80;;;7.20;99.90;;;;;;5050536;28;20471;-64
2023/01/22 09:52:58;;;;;;;14.02;12.63;;;6.90;99.90;;;;;;5050141;28;20179;-64
2023/01/22 09:55:29;;;;;;;14.02;11.15;;;6.70;99.90;;;;;;5050219;28;20178;-64
2023/01/22 09:57:59;;;;;;;14.20;11.07;;;6.60;99.90;;;;;;5049067;28;20170;-64
2023/01/22 10:00:35;;;;;;;13.80;10.82;;;6.30;99.90;;;;;;5052376;28;20264;-65
2023/01/22 10:03:05;;;;;;;11.68;10.25;;;6.20;99.90;;;;;;5052833;28;20195;-64
2023/01/22 10:05:45;;;;;;;13.65;10.57;;;6.10;99.90;;;;;;5051043;28;20174;-64
2023/01/22 10:08:19;;;;;;;14.35;11.00;;;6.10;99.90;;;;;;5050520;28;20626;-64
2023/01/22 10:10:49;;;;;;;13.68;11.32;;;6.10;99.90;;;;;;5052934;28;20537;-63
2023/01/22 10:13:20;;;;;;;16.02;10.93;;;6.20;99.90;;;;;;5055728;28;20170;-66
2023/01/22 10:15:49;;;;;;;11.88;9.57;;;6.10;99.90;;;;;;5045651;28;20590;-64
2023/01/22 10:18:32;;;;;;;12.90;10.73;;;6.00;99.90;;;;;;5049070;28;20185;-64
2023/01/22 10:21:03;;;;;;;15.80;11.07;;;5.90;99.90;;;;;;5050474;28;20185;-63
2023/01/22 10:23:33;;;;;;;13.55;10.07;;;5.80;99.90;;;;;;5052138;28;20217;-63
2023/01/22 10:26:11;;;;;;;12.27;10.18;;;5.80;99.90;;;;;;5051482;28;20675;-64
2023/01/22 10:28:41;;;;;;;11.95;10.52;;;5.80;99.90;;;;;;5046053;28;20180;-67
2023/01/22 10:31:20;;;;;;;15.82;10.15;;;5.70;99.90;;;;;;5052190;28;20170;-64
2023/01/22 10:33:46;;;;;;;13.20;10.27;;;5.50;99.90;;;;;;5046450;28;20190;-64
2023/01/22 10:36:13;;;;;;;12.73;10.60;;;5.50;99.90;;;;;;5046541;28;20174;-64
2023/01/22 10:38:39;;;;;;;13.88;10.63;;;5.60;99.90;;;;;;5050422;28;20178;-64
2023/01/22 10:41:05;;;;;;;12.00;10.10;;;5.60;99.90;;;;;;5049903;28;20229;-64
2023/01/22 10:43:36;;;;;;;16.80;10.93;;;5.50;99.90;;;;;;5051395;28;20242;-64
2023/01/22 10:46:14;;;;;;;14.23;11.02;;;5.50;99.90;;;;;;5051166;28;20189;-64
2023/01/22 10:48:40;;;;;;;13.40;10.85;;;5.50;99.90;;;;;;5049847;28;20174;-64
2023/01/22 10:51:16;;;;;;;12.53;10.00;;;5.50;99.90;;;;;;5051576;28;20193;-65
2023/01/22 10:53:52;;;;;;;13.38;10.68;;;5.60;99.90;;;;;;5049785;28;20435;-64
2023/01/22 10:56:39;;;;;;;14.25;11.05;;;5.60;99.90;;;;;;5051500;28;20165;-64
2023/01/22 10:59:23;;;;;;;13.45;10.38;;;5.60;99.90;;;;;;5057774;28;20174;-65
2023/01/22 11:01:57;;;;;;;13.00;10.23;;;5.60;99.90;;;;;;5050207;28;20197;-64
2023/01/22 11:04:28;;;;;;;13.70;10.77;;;5.70;99.90;;;;;;5049214;28;20216;-64
2023/01/22 11:07:21;;;;;;;816.20;492.77;;;5.70;99.90;;;;;;5048856;28;20228;-64
2023/01/22 11:10:08;;;;;;;56.33;35.03;;;5.80;99.90;;;;;;5052683;28;20199;-64
2023/01/22 11:12:44;;;;;;;13.30;11.27;;;5.80;99.90;;;;;;5045054;28;20189;-73
2023/01/22 11:15:25;;;;;;;12.35;9.95;;;5.70;99.90;;;;;;5049741;28;20216;-68
2023/01/22 11:17:58;;;;;;;12.40;9.57;;;5.70;99.90;;;;;;5043867;28;20178;-66
2023/01/22 11:20:47;;;;;;;11.02;9.88;;;5.50;99.90;;;;;;5046967;28;20186;-65
2023/01/22 11:23:23;;;;;;;15.20;9.95;;;5.30;99.90;;;;;;5049893;28;20189;-65
2023/01/22 11:25:59;;;;;;;12.73;9.70;;;5.20;99.90;;;;;;5049050;28;20185;-65
2023/01/22 11:28:54;;;;;;;12.10;8.77;;;5.20;99.90;;;;;;5047105;28;20181;-64
2023/01/22 11:31:46;;;;;;;11.68;9.68;;;5.20;99.90;;;;;;5041493;28;20525;-64
2023/01/22 11:34:39;;;;;;;13.60;9.57;;;5.20;99.90;;;;;;5050069;28;20261;-65
2023/01/22 11:37:13;;;;;;;10.82;9.27;;;5.30;99.90;;;;;;5048655;28;20190;-65
2023/01/22 11:39:53;;;;;;;10.77;9.52;;;5.40;99.90;;;;;;5051012;28;20223;-65
2023/01/22 11:42:57;;;;;;;11.63;9.85;;;5.40;99.90;;;;;;5050429;28;20263;-67
2023/01/22 11:45:51;;;;;;;12.18;9.55;;;5.40;99.90;;;;;;5050806;28;20174;-68
2023/01/22 11:48:52;;;;;;;14.10;10.88;;;5.40;99.90;;;;;;5051935;28;20180;-67
2023/01/22 11:51:30;;;;;;;12.57;10.43;;;5.40;99.90;;;;;;5051023;28;20178;-66
2023/01/22 11:54:27;;;;;;;12.68;11.30;;;5.40;99.90;;;;;;5049899;28;20174;-65
2023/01/22 11:57:21;;;;;;;12.40;11.10;;;5.50;99.90;;;;;;5050614;28;20173;-66
2023/01/22 11:59:57;;;;;;;11.43;10.05;;;5.30;99.90;;;;;;5048671;28;20170;-67
2023/01/22 12:02:49;;;;;;;13.07;11.10;;;5.30;99.90;;;;;;5053171;28;20193;-67
2023/01/22 12:05:41;;;;;;;10.70;9.63;;;5.20;99.90;;;;;;5048637;28;20162;-67
2023/01/22 12:08:39;;;;;;;13.38;10.00;;;5.10;99.90;;;;;;5048415;28;20507;-67
2023/01/22 12:11:29;;;;;;;12.23;10.70;;;5.10;99.90;;;;;;5049558;28;20247;-68
2023/01/22 12:14:13;;;;;;;347.40;162.93;;;5.10;99.90;;;;;;5048959;28;20194;-69
2023/01/22 12:17:05;;;;;;;21.58;15.45;;;5.20;99.90;;;;;;5050347;28;20169;-66
2023/01/22 12:19:46;;;;;;;12.20;10.63;;;5.20;99.90;;;;;;5044457;28;20182;-66
2023/01/22 12:22:59;;;;;;;13.77;12.27;;;5.10;99.90;;;;;;5049794;28;20452;-67
2023/01/22 12:25:49;;;;;;;15.07;11.43;;;5.30;99.90;;;;;;5025480;28;20190;-67
2023/01/22 12:28:39;;;;;;;12.70;10.95;;;5.40;99.90;;;;;;5045128;28;20178;-66
2023/01/22 12:31:31;;;;;;;14.50;10.63;;;5.40;99.90;;;;;;5048087;28;20626;-67
2023/01/22 12:34:00;;;;;;;16.20;11.50;;;5.50;99.90;;;;;;5049223;28;20259;-65
2023/01/22 12:36:27;;;;;;;14.05;11.23;;;5.50;99.90;;;;;;5046908;28;20630;-66
2023/01/22 12:38:56;;;;;;;12.15;10.40;;;5.40;99.90;;;;;;5047951;28;20181;-66
2023/01/22 12:41:48;;;;;;;15.02;11.43;;;5.20;99.90;;;;;;5049032;28;20315;-67
2023/01/22 12:44:49;;;;;;;17.73;11.02;;;5.20;99.90;;;;;;5050465;28;20546;-67
2023/01/22 12:47:35;;;;;;;13.65;11.43;;;5.10;99.90;;;;;;5033095;28;20182;-67
2023/01/22 12:50:01;;;;;;;13.13;10.50;;;5.10;99.90;;;;;;5047232;28;20178;-67
2023/01/22 12:52:32;;;;;;;13.57;10.53;;;4.90;99.90;;;;;;5050897;28;20170;-67
2023/01/22 12:54:58;;;;;;;13.07;11.00;;;4.80;99.90;;;;;;5046497;28;20175;-67
2023/01/22 12:57:35;;;;;;;15.77;11.00;;;4.90;99.90;;;;;;5052460;28;20182;-67
2023/01/22 13:00:12;;;;;;;15.10;11.52;;;4.90;99.90;;;;;;5052674;28;20523;-67
2023/01/22 13:02:38;;;;;;;16.17;12.30;;;5.00;99.90;;;;;;5052335;28;20654;-66